createdAt,value
2023-03-22T00:00:02.795Z,946.27
2023-03-22T00:00:14.758Z,946.27
2023-03-22T00:00:25.763Z,946.27
2023-03-22T00:00:37.212Z,946.26
2023-03-22T00:00:48.768Z,946.27
2023-03-22T00:00:59.776Z,946.27
2023-03-22T00:01:11.740Z,946.28
2023-03-22T00:01:22.731Z,946.28
2023-03-22T00:01:33.737Z,946.28
2023-03-22T00:01:44.732Z,946.27
2023-03-22T00:01:55.748Z,946.28
2023-03-22T00:02:06.757Z,946.28
2023-03-22T00:02:17.827Z,946.25
2023-03-22T00:02:28.776Z,946.23
2023-03-22T00:02:40.785Z,946.24
2023-03-22T00:02:51.762Z,946.24
2023-03-22T00:03:03.803Z,946.25
2023-03-22T00:03:14.716Z,946.25
2023-03-22T00:03:25.800Z,946.26
2023-03-22T00:03:36.797Z,946.26
2023-03-22T00:03:47.806Z,946.26
2023-03-22T00:03:58.772Z,946.26
2023-03-22T00:04:10.807Z,946.27
2023-03-22T00:04:21.709Z,946.26
2023-03-22T00:04:32.798Z,946.26
2023-03-22T00:04:43.725Z,946.27
2023-03-22T00:04:54.736Z,946.29
2023-03-22T00:05:05.748Z,946.29
2023-03-22T00:05:16.750Z,946.28
2023-03-22T00:05:28.756Z,946.28
2023-03-22T00:05:39.750Z,946.27
2023-03-22T00:05:50.756Z,946.27
2023-03-22T00:06:01.761Z,946.26
2023-03-22T00:06:12.763Z,946.25
2023-03-22T00:06:24.763Z,946.24
2023-03-22T00:06:36.738Z,946.24
2023-03-22T00:06:47.746Z,946.24
2023-03-22T00:06:58.747Z,946.25
2023-03-22T00:07:09.778Z,946.24
2023-03-22T00:07:20.769Z,946.23
2023-03-22T00:07:32.752Z,946.23
2023-03-22T00:07:43.755Z,946.24
2023-03-22T00:07:54.756Z,946.24
2023-03-22T00:08:05.768Z,946.24
2023-03-22T00:08:17.755Z,946.24
2023-03-22T00:08:28.765Z,946.24
2023-03-22T00:08:39.767Z,946.23
2023-03-22T00:08:50.793Z,946.23
2023-03-22T00:09:02.771Z,946.22
2023-03-22T00:09:14.735Z,946.23
2023-03-22T00:09:25.729Z,946.23
2023-03-22T00:09:36.738Z,946.22
2023-03-22T00:09:47.756Z,946.23
2023-03-22T00:09:58.764Z,946.23
2023-03-22T00:10:10.758Z,946.23
2023-03-22T00:10:21.760Z,946.24
2023-03-22T00:10:32.751Z,946.25
2023-03-22T00:10:44.745Z,946.26
2023-03-22T00:10:56.740Z,946.26
2023-03-22T00:11:07.737Z,946.26
2023-03-22T00:11:18.736Z,946.25
2023-03-22T00:11:29.741Z,946.25
2023-03-22T00:11:40.763Z,946.24
2023-03-22T00:11:51.771Z,946.22
2023-03-22T00:12:03.768Z,946.20
2023-03-22T00:12:15.731Z,946.20
2023-03-22T00:12:26.789Z,946.20
2023-03-22T00:12:38.757Z,946.20
2023-03-22T00:12:50.729Z,946.19
2023-03-22T00:13:01.736Z,946.18
2023-03-22T00:13:12.738Z,946.18
2023-03-22T00:13:23.749Z,946.16
2023-03-22T00:13:35.839Z,946.15
2023-03-22T00:13:46.728Z,946.16
2023-03-22T00:13:57.743Z,946.17
2023-03-22T00:14:08.739Z,946.17
2023-03-22T00:14:19.743Z,946.16
2023-03-22T00:14:30.706Z,946.16
2023-03-22T00:14:41.722Z,946.15
2023-03-22T00:14:52.758Z,946.16
2023-03-22T00:15:03.760Z,946.16
2023-03-22T00:15:14.780Z,946.16
2023-03-22T00:15:26.735Z,946.16
2023-03-22T00:15:37.750Z,946.15
2023-03-22T00:15:48.794Z,946.16
2023-03-22T00:15:59.830Z,946.16
2023-03-22T00:16:10.923Z,946.17
2023-03-22T00:16:21.902Z,946.18
2023-03-22T00:16:32.809Z,946.17
2023-03-22T00:16:44.772Z,946.15
2023-03-22T00:16:56.727Z,946.15
2023-03-22T00:17:07.732Z,946.14
2023-03-22T00:17:18.731Z,946.13
2023-03-22T00:17:29.725Z,946.12
2023-03-22T00:17:40.730Z,946.10
2023-03-22T00:17:52.736Z,946.09
2023-03-22T00:18:03.754Z,946.09
2023-03-22T00:18:14.757Z,946.09
2023-03-22T00:18:25.763Z,946.09
2023-03-22T00:18:37.742Z,946.09
2023-03-22T00:18:48.742Z,946.08
2023-03-22T00:18:59.752Z,946.07
2023-03-22T00:19:10.752Z,946.07
2023-03-22T00:19:21.749Z,946.07
2023-03-22T00:19:32.747Z,946.07
2023-03-22T00:19:43.758Z,946.07
2023-03-22T00:19:55.761Z,946.07
2023-03-22T00:20:07.750Z,946.08
2023-03-22T00:20:20.687Z,946.08
2023-03-22T00:20:29.749Z,946.09
2023-03-22T00:20:41.128Z,946.10
2023-03-22T00:20:52.740Z,946.09
2023-03-22T00:21:03.751Z,946.08
2023-03-22T00:21:14.795Z,946.09
2023-03-22T00:21:26.771Z,946.10
2023-03-22T00:21:38.732Z,946.09
2023-03-22T00:21:49.733Z,946.08
2023-03-22T00:22:00.755Z,946.08
2023-03-22T00:22:11.779Z,946.07
2023-03-22T00:22:23.742Z,946.08
2023-03-22T00:22:34.741Z,946.07
2023-03-22T00:22:45.737Z,946.06
2023-03-22T00:22:57.749Z,946.06
2023-03-22T00:23:08.766Z,946.06
2023-03-22T00:23:20.734Z,946.06
2023-03-22T00:23:31.734Z,946.06
2023-03-22T00:23:42.747Z,946.06
2023-03-22T00:23:53.754Z,946.07
2023-03-22T00:24:05.733Z,946.07
2023-03-22T00:24:17.755Z,946.07
2023-03-22T00:24:28.751Z,946.08
2023-03-22T00:24:40.737Z,946.07
2023-03-22T00:24:51.741Z,946.07
2023-03-22T00:25:02.751Z,946.06
2023-03-22T00:25:13.751Z,946.05
2023-03-22T00:25:24.761Z,946.05
2023-03-22T00:25:35.765Z,946.04
2023-03-22T00:25:46.758Z,946.03
2023-03-22T00:25:57.765Z,946.02
2023-03-22T00:26:08.754Z,946.01
2023-03-22T00:26:19.755Z,946.01
2023-03-22T00:26:30.775Z,946.01
2023-03-22T00:26:41.777Z,946.00
2023-03-22T00:26:53.736Z,946.00
2023-03-22T00:27:04.745Z,946.00
2023-03-22T00:27:15.752Z,945.99
2023-03-22T00:27:27.732Z,945.99
2023-03-22T00:27:38.773Z,945.99
2023-03-22T00:27:50.749Z,945.99
2023-03-22T00:28:01.747Z,945.99
2023-03-22T00:28:12.764Z,945.99
2023-03-22T00:28:23.761Z,945.99
2023-03-22T00:28:35.748Z,945.99
2023-03-22T00:28:46.740Z,946.00
2023-03-22T00:28:57.734Z,946.00
2023-03-22T00:29:08.764Z,946.00
2023-03-22T00:29:19.767Z,946.01
2023-03-22T00:29:31.754Z,946.02
2023-03-22T00:29:42.760Z,946.01
2023-03-22T00:29:53.764Z,946.00
2023-03-22T00:30:05.751Z,946.01
2023-03-22T00:30:16.752Z,946.01
2023-03-22T00:30:27.756Z,946.01
2023-03-22T00:30:40.164Z,946.01
2023-03-22T00:30:51.761Z,946.03
2023-03-22T00:31:02.804Z,946.04
2023-03-22T00:31:13.763Z,946.03
2023-03-22T00:31:25.774Z,946.00
2023-03-22T00:31:37.807Z,946.02
2023-03-22T00:31:48.821Z,946.05
2023-03-22T00:31:59.738Z,946.05
2023-03-22T00:32:10.766Z,946.05
2023-03-22T00:32:22.733Z,946.05
2023-03-22T00:32:33.732Z,946.05
2023-03-22T00:32:45.743Z,946.05
2023-03-22T00:32:56.746Z,946.04
2023-03-22T00:33:08.762Z,946.03
2023-03-22T00:33:20.739Z,946.03
2023-03-22T00:33:31.732Z,946.02
2023-03-22T00:33:42.746Z,946.03
2023-03-22T00:33:53.756Z,946.02
2023-03-22T00:34:04.761Z,946.00
2023-03-22T00:34:15.763Z,945.99
2023-03-22T00:34:26.766Z,945.98
2023-03-22T00:34:37.760Z,945.96
2023-03-22T00:34:49.736Z,945.95
2023-03-22T00:35:00.754Z,945.95
2023-03-22T00:35:11.774Z,945.95
2023-03-22T00:35:22.791Z,945.94
2023-03-22T00:35:34.804Z,945.95
2023-03-22T00:35:46.782Z,945.95
2023-03-22T00:35:58.762Z,945.95
2023-03-22T00:36:10.766Z,945.95
2023-03-22T00:36:22.751Z,945.96
2023-03-22T00:36:33.753Z,945.98
2023-03-22T00:36:45.738Z,945.98
2023-03-22T00:36:56.763Z,945.99
2023-03-22T00:37:08.746Z,945.98
2023-03-22T00:37:19.741Z,945.98
2023-03-22T00:37:30.756Z,945.99
2023-03-22T00:37:42.749Z,945.99
2023-03-22T00:37:53.740Z,945.99
2023-03-22T00:38:05.748Z,946.01
2023-03-22T00:38:16.738Z,945.99
2023-03-22T00:38:41.402Z,945.99
2023-03-22T00:38:42.849Z,945.99
2023-03-22T00:38:49.745Z,945.97
2023-03-22T00:39:00.752Z,945.97
2023-03-22T00:39:11.751Z,945.97
2023-03-22T00:39:22.748Z,945.97
2023-03-22T00:39:34.729Z,945.97
2023-03-22T00:39:45.736Z,945.97
2023-03-22T00:39:56.738Z,945.97
2023-03-22T00:40:07.745Z,945.97
2023-03-22T00:40:18.745Z,945.97
2023-03-22T00:40:29.754Z,945.98
2023-03-22T00:40:41.023Z,945.97
2023-03-22T00:40:52.765Z,945.96
2023-03-22T00:41:03.760Z,945.97
2023-03-22T00:41:15.759Z,945.97
2023-03-22T00:41:26.750Z,945.97
2023-03-22T00:41:37.747Z,945.97
2023-03-22T00:41:48.737Z,945.97
2023-03-22T00:42:00.755Z,945.97
2023-03-22T00:42:11.758Z,945.97
2023-03-22T00:42:23.749Z,945.98
2023-03-22T00:42:34.806Z,945.98
2023-03-22T00:42:46.771Z,945.98
2023-03-22T00:42:58.725Z,945.97
2023-03-22T00:43:09.728Z,945.96
2023-03-22T00:43:20.737Z,945.97
2023-03-22T00:43:31.736Z,945.96
2023-03-22T00:43:42.757Z,945.92
2023-03-22T00:43:53.758Z,945.91
2023-03-22T00:44:04.755Z,945.90
2023-03-22T00:44:16.736Z,945.90
2023-03-22T00:44:27.736Z,945.91
2023-03-22T00:44:38.738Z,945.91
2023-03-22T00:44:49.735Z,945.93
2023-03-22T00:45:00.749Z,945.92
2023-03-22T00:45:12.742Z,945.92
2023-03-22T00:45:23.754Z,945.92
2023-03-22T00:45:34.754Z,945.93
2023-03-22T00:45:45.815Z,945.93
2023-03-22T00:45:57.789Z,945.93
2023-03-22T00:46:09.857Z,945.93
2023-03-22T00:46:21.780Z,945.93
2023-03-22T00:46:33.837Z,945.94
2023-03-22T00:46:45.736Z,945.93
2023-03-22T00:46:56.733Z,945.93
2023-03-22T00:47:07.735Z,945.93
2023-03-22T00:47:18.738Z,945.92
2023-03-22T00:47:29.736Z,945.92
2023-03-22T00:47:40.752Z,945.91
2023-03-22T00:47:51.846Z,945.90
2023-03-22T00:48:03.742Z,945.90
2023-03-22T00:48:14.824Z,945.91
2023-03-22T00:48:25.813Z,945.90
2023-03-22T00:48:36.765Z,945.90
2023-03-22T00:48:48.733Z,945.90
2023-03-22T00:48:59.731Z,945.89
2023-03-22T00:49:10.732Z,945.89
2023-03-22T00:49:21.722Z,945.89
2023-03-22T00:49:32.732Z,945.89
2023-03-22T00:49:43.756Z,945.89
2023-03-22T00:49:55.758Z,945.89
2023-03-22T00:50:07.770Z,945.89
2023-03-22T00:50:19.745Z,945.89
2023-03-22T00:50:30.757Z,945.88
2023-03-22T00:50:41.743Z,945.88
2023-03-22T00:50:52.743Z,945.87
2023-03-22T00:51:03.751Z,945.87
2023-03-22T00:51:15.765Z,945.87
2023-03-22T00:51:26.770Z,945.86
2023-03-22T00:51:37.773Z,945.86
2023-03-22T00:51:49.758Z,945.86
2023-03-22T00:52:00.764Z,945.86
2023-03-22T00:52:12.741Z,945.86
2023-03-22T00:52:23.736Z,945.86
2023-03-22T00:52:34.806Z,945.87
2023-03-22T00:52:46.789Z,945.86
2023-03-22T00:52:58.761Z,945.87
2023-03-22T00:53:09.753Z,945.86
2023-03-22T00:53:20.753Z,945.86
2023-03-22T00:53:31.758Z,945.87
2023-03-22T00:53:43.641Z,945.88
2023-03-22T00:53:54.772Z,945.88
2023-03-22T00:54:06.732Z,945.87
2023-03-22T00:54:17.800Z,945.86
2023-03-22T00:54:29.770Z,945.85
2023-03-22T00:54:41.736Z,945.86
2023-03-22T00:54:52.761Z,945.85
2023-03-22T00:55:03.763Z,945.85
2023-03-22T00:55:15.745Z,945.85
2023-03-22T00:55:26.820Z,945.85
2023-03-22T00:55:38.782Z,945.84
2023-03-22T00:55:50.763Z,945.85
2023-03-22T00:56:02.766Z,945.84
2023-03-22T00:56:14.762Z,945.84
2023-03-22T00:56:26.745Z,945.83
2023-03-22T00:56:37.743Z,945.83
2023-03-22T00:56:48.760Z,945.82
2023-03-22T00:56:59.761Z,945.82
2023-03-22T00:57:10.763Z,945.81
2023-03-22T00:57:21.762Z,945.81
2023-03-22T00:57:33.750Z,945.80
2023-03-22T00:57:44.753Z,945.80
2023-03-22T00:57:55.753Z,945.79
2023-03-22T00:58:06.750Z,945.80
2023-03-22T00:58:18.770Z,945.81
2023-03-22T00:58:30.757Z,945.81
2023-03-22T00:58:41.767Z,945.82
2023-03-22T00:58:53.776Z,945.82
2023-03-22T00:59:05.756Z,945.82
2023-03-22T00:59:16.781Z,945.82
2023-03-22T00:59:28.749Z,945.82
2023-03-22T00:59:39.742Z,945.82
2023-03-22T00:59:50.749Z,945.81
2023-03-22T01:00:01.748Z,945.80
2023-03-22T01:11:30.226Z,945.69
2023-03-22T01:11:41.218Z,945.67
2023-03-22T01:11:52.223Z,945.66
2023-03-22T01:12:03.244Z,945.65
2023-03-22T01:12:14.239Z,945.65
2023-03-22T01:12:26.224Z,945.66
2023-03-22T01:12:37.237Z,945.66
2023-03-22T01:12:49.220Z,945.66
2023-03-22T01:13:00.234Z,945.67
2023-03-22T01:13:12.257Z,945.67
2023-03-22T01:13:24.219Z,945.67
2023-03-22T01:13:35.230Z,945.67
2023-03-22T01:13:46.228Z,945.67
2023-03-22T01:13:57.222Z,945.68
2023-03-22T01:14:08.229Z,945.68
2023-03-22T01:14:20.225Z,945.69
2023-03-22T01:14:31.219Z,945.68
2023-03-22T01:14:43.248Z,945.69
2023-03-22T01:14:55.204Z,945.69
2023-03-22T01:15:06.225Z,945.70
2023-03-22T01:15:18.211Z,945.69
2023-03-22T01:15:29.214Z,945.70
2023-03-22T01:15:41.229Z,945.71
2023-03-22T01:15:52.227Z,945.71
2023-03-22T01:16:03.258Z,945.71
2023-03-22T01:16:15.273Z,945.70
2023-03-22T01:16:27.324Z,945.70
2023-03-22T01:16:39.281Z,945.70
2023-03-22T01:16:50.233Z,945.69
2023-03-22T01:17:02.209Z,945.68
2023-03-22T01:17:13.202Z,945.68
2023-03-22T01:17:24.225Z,945.67
2023-03-22T01:17:35.219Z,945.66
2023-03-22T01:17:46.205Z,945.66
2023-03-22T01:17:57.207Z,945.65
2023-03-22T01:18:08.220Z,945.63
2023-03-22T01:18:19.239Z,945.63
2023-03-22T01:18:30.237Z,945.63
2023-03-22T01:18:42.224Z,945.62
2023-03-22T01:18:53.219Z,945.62
2023-03-22T01:19:05.200Z,945.62
2023-03-22T01:19:16.222Z,945.62
2023-03-22T01:19:27.232Z,945.61
2023-03-22T01:19:38.254Z,945.62
2023-03-22T01:19:50.214Z,945.63
2023-03-22T01:20:01.228Z,945.64
2023-03-22T01:20:13.219Z,945.64
2023-03-22T01:20:25.216Z,945.64
2023-03-22T01:20:36.242Z,945.65
2023-03-22T01:20:48.213Z,945.68
2023-03-22T01:20:59.218Z,945.69
2023-03-22T01:21:11.216Z,945.70
2023-03-22T01:21:22.202Z,945.69
2023-03-22T01:21:33.226Z,945.69
2023-03-22T01:21:44.226Z,945.68
2023-03-22T01:21:55.226Z,945.67
2023-03-22T01:22:07.202Z,945.66
2023-03-22T01:22:18.218Z,945.65
2023-03-22T01:22:29.218Z,945.65
2023-03-22T01:22:40.216Z,945.65
2023-03-22T01:22:51.237Z,945.65
2023-03-22T01:23:02.244Z,945.65
2023-03-22T01:23:14.215Z,945.65
2023-03-22T01:23:25.225Z,945.65
2023-03-22T01:23:36.222Z,945.65
2023-03-22T01:23:48.210Z,945.65
2023-03-22T01:24:00.222Z,945.63
2023-03-22T01:24:11.222Z,945.62
2023-03-22T01:24:22.226Z,945.63
2023-03-22T01:24:33.227Z,945.64
2023-03-22T01:24:44.227Z,945.63
2023-03-22T01:24:55.236Z,945.62
2023-03-22T01:25:07.226Z,945.60
2023-03-22T01:25:18.219Z,945.59
2023-03-22T01:25:29.237Z,945.57
2023-03-22T01:25:40.265Z,945.57
2023-03-22T01:25:51.234Z,945.58
2023-03-22T01:26:03.220Z,945.58
2023-03-22T01:26:15.209Z,945.59
2023-03-22T01:26:26.243Z,945.61
2023-03-22T01:26:37.208Z,945.63
2023-03-22T01:26:48.212Z,945.64
2023-03-22T01:27:00.210Z,945.64
2023-03-22T01:27:11.228Z,945.63
2023-03-22T01:27:22.227Z,945.63
2023-03-22T01:27:33.227Z,945.62
2023-03-22T01:27:45.205Z,945.60
2023-03-22T01:27:56.221Z,945.60
2023-03-22T01:28:07.219Z,945.61
2023-03-22T01:28:18.231Z,945.61
2023-03-22T01:28:30.218Z,945.62
2023-03-22T01:28:41.215Z,945.60
2023-03-22T01:28:52.229Z,945.58
2023-03-22T01:29:04.247Z,945.59
2023-03-22T01:29:16.214Z,945.61
2023-03-22T01:29:27.225Z,945.62
2023-03-22T01:29:38.228Z,945.62
2023-03-22T01:29:49.235Z,945.61
2023-03-22T01:30:01.222Z,945.60
2023-03-22T01:30:12.204Z,945.59
2023-03-22T01:30:23.192Z,945.58
2023-03-22T01:30:34.197Z,945.57
2023-03-22T01:30:45.239Z,945.58
2023-03-22T01:30:56.397Z,945.58
2023-03-22T01:31:07.888Z,945.58
2023-03-22T01:31:18.274Z,945.58
2023-03-22T01:31:29.237Z,945.58
2023-03-22T01:31:40.233Z,945.57
2023-03-22T01:31:51.237Z,945.57
2023-03-22T01:32:03.204Z,945.57
2023-03-22T01:32:14.219Z,945.57
2023-03-22T01:32:25.232Z,945.58
2023-03-22T01:32:36.236Z,945.61
2023-03-22T01:32:47.236Z,945.59
2023-03-22T01:32:58.222Z,945.54
2023-03-22T01:33:10.229Z,945.55
2023-03-22T01:33:21.234Z,945.58
2023-03-22T01:33:32.224Z,945.60
2023-03-22T01:33:43.234Z,945.61
2023-03-22T01:33:54.229Z,945.61
2023-03-22T01:34:05.226Z,945.59
2023-03-22T01:34:16.223Z,945.57
2023-03-22T01:34:27.226Z,945.56
2023-03-22T01:34:39.205Z,945.55
2023-03-22T01:34:50.215Z,945.55
2023-03-22T01:35:01.207Z,945.53
2023-03-22T01:35:13.203Z,945.51
2023-03-22T01:35:24.260Z,945.51
2023-03-22T01:35:36.328Z,945.51
2023-03-22T01:35:48.316Z,945.54
2023-03-22T01:35:59.300Z,945.55
2023-03-22T01:36:10.768Z,945.56
2023-03-22T01:36:22.733Z,945.55
2023-03-22T01:36:33.736Z,945.54
2023-03-22T01:36:44.730Z,945.53
2023-03-22T01:36:55.740Z,945.53
2023-03-22T01:37:06.748Z,945.52
2023-03-22T01:37:17.748Z,945.50
2023-03-22T01:37:28.762Z,945.51
2023-03-22T01:37:39.754Z,945.52
2023-03-22T01:37:50.758Z,945.54
2023-03-22T01:38:02.730Z,945.55
2023-03-22T01:38:13.751Z,945.55
2023-03-22T01:38:24.748Z,945.56
2023-03-22T01:38:35.756Z,945.56
2023-03-22T01:38:46.756Z,945.56
2023-03-22T01:38:57.751Z,945.57
2023-03-22T01:39:08.708Z,945.58
2023-03-22T01:39:19.822Z,945.58
2023-03-22T01:39:31.804Z,945.58
2023-03-22T01:39:43.768Z,945.57
2023-03-22T01:39:54.764Z,945.57
2023-03-22T01:40:05.760Z,945.56
2023-03-22T01:40:17.770Z,945.54
2023-03-22T01:40:28.770Z,945.54
2023-03-22T01:40:41.026Z,945.52
2023-03-22T01:40:51.721Z,945.51
2023-03-22T01:41:02.718Z,945.49
2023-03-22T01:41:13.723Z,945.49
2023-03-22T01:41:24.718Z,945.54
2023-03-22T01:41:35.727Z,945.53
2023-03-22T01:41:46.731Z,945.54
2023-03-22T01:41:57.742Z,945.55
2023-03-22T01:42:09.736Z,945.54
2023-03-22T01:42:20.726Z,945.53
2023-03-22T01:42:31.721Z,945.52
2023-03-22T01:42:42.717Z,945.52
2023-03-22T01:42:53.822Z,945.52
2023-03-22T01:43:05.787Z,945.52
2023-03-22T01:43:17.759Z,945.52
2023-03-22T01:43:29.745Z,945.51
2023-03-22T01:43:40.740Z,945.52
2023-03-22T01:43:51.725Z,945.52
2023-03-22T01:44:02.721Z,945.52
2023-03-22T01:44:13.707Z,945.52
2023-03-22T01:44:24.763Z,945.52
2023-03-22T01:44:35.755Z,945.53
2023-03-22T01:44:46.760Z,945.53
2023-03-22T01:44:58.759Z,945.55
2023-03-22T01:45:09.769Z,945.55
2023-03-22T01:45:21.740Z,945.55
2023-03-22T01:45:32.736Z,945.55
2023-03-22T01:45:43.780Z,945.55
2023-03-22T01:45:54.867Z,945.54
2023-03-22T01:46:05.727Z,945.54
2023-03-22T01:46:16.742Z,945.53
2023-03-22T01:46:27.830Z,945.51
2023-03-22T01:46:38.832Z,945.50
2023-03-22T01:46:49.764Z,945.49
2023-03-22T01:47:01.746Z,945.49
2023-03-22T01:47:12.753Z,945.48
2023-03-22T01:47:23.766Z,945.47
2023-03-22T01:47:34.762Z,945.46
2023-03-22T01:47:45.845Z,945.45
2023-03-22T01:47:56.802Z,945.45
2023-03-22T01:48:08.792Z,945.45
2023-03-22T01:48:19.809Z,945.45
2023-03-22T01:48:31.750Z,945.45
2023-03-22T01:48:42.789Z,945.45
2023-03-22T01:48:54.808Z,945.46
2023-03-22T01:49:05.768Z,945.48
2023-03-22T01:49:17.804Z,945.47
2023-03-22T01:49:29.788Z,945.46
2023-03-22T01:49:41.782Z,945.47
2023-03-22T01:49:53.744Z,945.47
2023-03-22T01:50:05.762Z,945.47
2023-03-22T01:50:16.768Z,945.46
2023-03-22T01:50:27.770Z,945.46
2023-03-22T01:50:39.119Z,945.46
2023-03-22T01:50:50.784Z,945.46
2023-03-22T01:51:02.765Z,945.48
2023-03-22T01:51:13.768Z,945.47
2023-03-22T01:51:25.747Z,945.47
2023-03-22T01:51:36.754Z,945.47
2023-03-22T01:51:47.754Z,945.47
2023-03-22T01:51:58.747Z,945.47
2023-03-22T01:52:09.751Z,945.47
2023-03-22T01:52:20.768Z,945.46
2023-03-22T01:52:31.778Z,945.46
2023-03-22T01:52:43.743Z,945.46
2023-03-22T01:52:54.752Z,945.46
2023-03-22T01:53:05.750Z,945.46
2023-03-22T01:53:16.754Z,945.45
2023-03-22T01:53:27.749Z,945.45
2023-03-22T01:53:38.794Z,945.46
2023-03-22T01:53:49.813Z,945.46
2023-03-22T01:54:01.792Z,945.46
2023-03-22T01:54:13.764Z,945.46
2023-03-22T01:54:25.751Z,945.45
2023-03-22T01:54:36.763Z,945.44
2023-03-22T01:54:47.766Z,945.44
2023-03-22T01:54:59.744Z,945.43
2023-03-22T01:55:10.739Z,945.44
2023-03-22T01:55:22.838Z,945.45
2023-03-22T01:55:33.768Z,945.45
2023-03-22T01:55:45.748Z,945.46
2023-03-22T01:55:56.736Z,945.46
2023-03-22T01:56:07.748Z,945.43
2023-03-22T01:56:18.735Z,945.41
2023-03-22T01:56:29.742Z,945.41
2023-03-22T01:56:40.756Z,945.42
2023-03-22T01:56:51.766Z,945.40
2023-03-22T01:57:02.768Z,945.39
2023-03-22T01:57:14.737Z,945.41
2023-03-22T01:57:25.750Z,945.41
2023-03-22T01:57:36.735Z,945.40
2023-03-22T01:57:47.739Z,945.39
2023-03-22T01:57:58.738Z,945.38
2023-03-22T01:58:09.744Z,945.38
2023-03-22T01:58:20.747Z,945.37
2023-03-22T01:58:31.750Z,945.37
2023-03-22T01:58:42.765Z,945.37
2023-03-22T01:58:54.748Z,945.36
2023-03-22T01:59:05.748Z,945.36
2023-03-22T01:59:16.767Z,945.36
2023-03-22T01:59:27.769Z,945.36
2023-03-22T01:59:38.767Z,945.36
2023-03-22T01:59:49.771Z,945.37
2023-03-22T02:00:01.751Z,945.38
2023-03-22T02:00:12.780Z,945.40
2023-03-22T02:00:23.768Z,945.39
2023-03-22T02:00:35.776Z,945.40
2023-03-22T02:00:47.776Z,945.41
2023-03-22T02:00:59.843Z,945.42
2023-03-22T02:01:10.782Z,945.42
2023-03-22T02:01:22.795Z,945.43
2023-03-22T02:01:34.790Z,945.43
2023-03-22T02:01:45.772Z,945.44
2023-03-22T02:01:56.802Z,945.44
2023-03-22T02:02:08.768Z,945.44
2023-03-22T02:02:19.828Z,945.44
2023-03-22T02:02:30.815Z,945.44
2023-03-22T02:02:41.812Z,945.44
2023-03-22T02:02:52.784Z,945.44
2023-03-22T02:03:03.728Z,945.43
2023-03-22T02:03:14.743Z,945.43
2023-03-22T02:03:25.741Z,945.43
2023-03-22T02:03:36.744Z,945.42
2023-03-22T02:03:47.756Z,945.42
2023-03-22T02:03:58.763Z,945.42
2023-03-22T02:04:09.753Z,945.43
2023-03-22T02:04:20.753Z,945.43
2023-03-22T02:04:32.743Z,945.43
2023-03-22T02:04:43.752Z,945.42
2023-03-22T02:04:54.762Z,945.41
2023-03-22T02:05:05.760Z,945.41
2023-03-22T02:05:16.771Z,945.41
2023-03-22T02:05:27.776Z,945.43
2023-03-22T02:05:39.735Z,945.43
2023-03-22T02:05:50.730Z,945.43
2023-03-22T02:06:01.767Z,945.42
2023-03-22T02:06:12.764Z,945.42
2023-03-22T02:06:23.761Z,945.43
2023-03-22T02:06:34.766Z,945.45
2023-03-22T02:06:45.754Z,945.46
2023-03-22T02:06:56.737Z,945.46
2023-03-22T02:07:07.758Z,945.45
2023-03-22T02:07:19.732Z,945.44
2023-03-22T02:07:30.728Z,945.42
2023-03-22T02:07:41.726Z,945.42
2023-03-22T02:07:52.712Z,945.43
2023-03-22T02:08:03.729Z,945.43
2023-03-22T02:08:14.726Z,945.41
2023-03-22T02:08:25.731Z,945.42
2023-03-22T02:08:36.731Z,945.42
2023-03-22T02:08:47.733Z,945.38
2023-03-22T02:08:58.738Z,945.36
2023-03-22T02:09:09.742Z,945.40
2023-03-22T02:09:20.732Z,945.41
2023-03-22T02:09:31.727Z,945.40
2023-03-22T02:09:42.712Z,945.39
2023-03-22T02:09:53.712Z,945.38
2023-03-22T02:10:04.716Z,945.40
2023-03-22T02:10:15.786Z,945.41
2023-03-22T02:10:27.747Z,945.37
2023-03-22T02:10:39.124Z,945.36
2023-03-22T02:10:50.764Z,945.37
2023-03-22T02:11:01.768Z,945.37
2023-03-22T02:11:12.765Z,945.36
2023-03-22T02:11:23.753Z,945.37
2023-03-22T02:11:35.733Z,945.36
2023-03-22T02:11:46.739Z,945.37
2023-03-22T02:11:57.749Z,945.37
2023-03-22T02:12:08.742Z,945.36
2023-03-22T02:12:19.749Z,945.36
2023-03-22T02:12:30.743Z,945.37
2023-03-22T02:12:41.739Z,945.37
2023-03-22T02:12:52.753Z,945.37
2023-03-22T02:13:03.746Z,945.38
2023-03-22T02:13:14.742Z,945.40
2023-03-22T02:13:25.725Z,945.39
2023-03-22T02:13:36.737Z,945.39
2023-03-22T02:13:47.740Z,945.38
2023-03-22T02:13:58.719Z,945.39
2023-03-22T02:14:10.723Z,945.38
2023-03-22T02:14:23.353Z,945.38
2023-03-22T02:14:32.719Z,945.39
2023-03-22T02:14:43.704Z,945.39
2023-03-22T02:14:54.815Z,945.40
2023-03-22T02:15:06.789Z,945.39
2023-03-22T02:15:18.744Z,945.38
2023-03-22T02:15:29.848Z,945.36
2023-03-22T02:15:40.803Z,945.33
2023-03-22T02:15:52.813Z,945.35
2023-03-22T02:16:04.839Z,945.37
2023-03-22T02:16:15.870Z,945.38
2023-03-22T02:16:26.756Z,945.36
2023-03-22T02:16:37.750Z,945.36
2023-03-22T02:16:48.751Z,945.37
2023-03-22T02:16:59.743Z,945.37
2023-03-22T02:17:10.751Z,945.36
2023-03-22T02:17:21.734Z,945.35
2023-03-22T02:17:32.717Z,945.36
2023-03-22T02:17:43.724Z,945.37
2023-03-22T02:17:54.722Z,945.36
2023-03-22T02:18:05.724Z,945.35
2023-03-22T02:18:16.745Z,945.35
2023-03-22T02:18:27.757Z,945.34
2023-03-22T02:18:38.771Z,945.32
2023-03-22T02:18:50.750Z,945.31
2023-03-22T02:19:01.754Z,945.31
2023-03-22T02:19:12.758Z,945.32
2023-03-22T02:19:23.758Z,945.31
2023-03-22T02:19:34.763Z,945.30
2023-03-22T02:19:46.756Z,945.31
2023-03-22T02:19:57.774Z,945.32
2023-03-22T02:20:09.743Z,945.32
2023-03-22T02:20:20.738Z,945.31
2023-03-22T02:20:31.744Z,945.31
2023-03-22T02:20:42.742Z,945.31
2023-03-22T02:20:53.736Z,945.32
2023-03-22T02:21:04.731Z,945.32
2023-03-22T02:21:15.727Z,945.32
2023-03-22T02:21:26.726Z,945.32
2023-03-22T02:21:37.739Z,945.32
2023-03-22T02:21:48.756Z,945.31
2023-03-22T02:21:59.745Z,945.30
2023-03-22T02:22:10.760Z,945.30
2023-03-22T02:22:21.770Z,945.30
2023-03-22T02:22:33.754Z,945.30
2023-03-22T02:22:44.776Z,945.29
2023-03-22T02:22:56.741Z,945.29
2023-03-22T02:23:07.730Z,945.28
2023-03-22T02:23:18.707Z,945.27
2023-03-22T02:23:29.710Z,945.25
2023-03-22T02:23:40.802Z,945.24
2023-03-22T02:23:52.760Z,945.24
2023-03-22T02:24:03.760Z,945.24
2023-03-22T02:24:14.760Z,945.26
2023-03-22T02:24:25.762Z,945.28
2023-03-22T02:24:37.748Z,945.30
2023-03-22T02:24:48.743Z,945.31
2023-03-22T02:24:59.750Z,945.31
2023-03-22T02:25:10.734Z,945.32
2023-03-22T02:25:21.734Z,945.32
2023-03-22T02:25:32.732Z,945.31
2023-03-22T02:25:43.731Z,945.32
2023-03-22T02:25:54.743Z,945.33
2023-03-22T02:26:05.749Z,945.32
2023-03-22T02:26:16.751Z,945.33
2023-03-22T02:26:27.758Z,945.33
2023-03-22T02:26:38.760Z,945.32
2023-03-22T02:26:49.780Z,945.32
2023-03-22T02:27:01.748Z,945.31
2023-03-22T02:27:12.742Z,945.30
2023-03-22T02:27:23.742Z,945.29
2023-03-22T02:27:34.741Z,945.27
2023-03-22T02:27:45.734Z,945.28
2023-03-22T02:27:56.732Z,945.28
2023-03-22T02:28:07.750Z,945.29
2023-03-22T02:28:18.765Z,945.29
2023-03-22T02:28:29.773Z,945.30
2023-03-22T02:28:40.765Z,945.31
2023-03-22T02:28:51.758Z,945.32
2023-03-22T02:29:02.760Z,945.32
2023-03-22T02:29:13.773Z,945.32
2023-03-22T02:29:25.746Z,945.31
2023-03-22T02:29:36.746Z,945.29
2023-03-22T02:29:47.753Z,945.28
2023-03-22T02:29:58.749Z,945.26
2023-03-22T02:30:09.750Z,945.25
2023-03-22T02:30:21.733Z,945.21
2023-03-22T02:30:32.736Z,945.19
2023-03-22T02:30:43.731Z,945.18
2023-03-22T02:30:54.765Z,945.20
2023-03-22T02:31:06.784Z,945.22
2023-03-22T02:31:18.778Z,945.24
2023-03-22T02:31:30.815Z,945.26
2023-03-22T02:31:41.768Z,945.28
2023-03-22T02:31:53.738Z,945.30